sensor_id;sensor_type;location;lat;lon;timestamp;P1;durP1;ratioP1;P2;durP2;ratioP2
1350;SDS011;669;50.206;9.998;2023-10-31T00:00:39;4.30;;;2.63;;
1350;SDS011;669;50.206;9.998;2023-10-31T00:03:07;3.63;;;2.60;;
1350;SDS011;669;50.206;9.998;2023-10-31T00:05:36;1.80;;;1.70;;
1350;SDS011;669;50.206;9.998;2023-10-31T00:08:04;2.90;;;2.20;;
1350;SDS011;669;50.206;9.998;2023-10-31T00:10:32;2.50;;;2.30;;
1350;SDS011;669;50.206;9.998;2023-10-31T00:13:00;2.10;;;2.00;;
1350;SDS011;669;50.206;9.998;2023-10-31T00:15:28;1.93;;;1.77;;
1350;SDS011;669;50.206;9.998;2023-10-31T00:17:58;2.40;;;2.03;;
1350;SDS011;669;50.206;9.998;2023-10-31T00:20:26;3.17;;;1.80;;
1350;SDS011;669;50.206;9.998;2023-10-31T00:22:54;2.03;;;1.93;;
1350;SDS011;669;50.206;9.998;2023-10-31T00:25:22;2.20;;;2.00;;
1350;SDS011;669;50.206;9.998;2023-10-31T00:27:50;1.97;;;1.80;;
1350;SDS011;669;50.206;9.998;2023-10-31T00:30:18;1.80;;;1.70;;
1350;SDS011;669;50.206;9.998;2023-10-31T00:32:46;3.07;;;2.30;;
1350;SDS011;669;50.206;9.998;2023-10-31T00:35:15;2.60;;;2.40;;
1350;SDS011;669;50.206;9.998;2023-10-31T00:37:44;3.83;;;2.97;;
1350;SDS011;669;50.206;9.998;2023-10-31T00:40:12;2.70;;;2.60;;
1350;SDS011;669;50.206;9.998;2023-10-31T00:42:40;6.80;;;4.27;;
1350;SDS011;669;50.206;9.998;2023-10-31T00:45:08;3.03;;;2.50;;
1350;SDS011;669;50.206;9.998;2023-10-31T00:47:37;2.80;;;2.60;;
1350;SDS011;669;50.206;9.998;2023-10-31T00:50:05;2.83;;;2.63;;
1350;SDS011;669;50.206;9.998;2023-10-31T00:52:35;4.20;;;2.37;;
1350;SDS011;669;50.206;9.998;2023-10-31T00:55:04;2.10;;;1.90;;
1350;SDS011;669;50.206;9.998;2023-10-31T00:57:32;1.90;;;1.80;;
1350;SDS011;669;50.206;9.998;2023-10-31T01:00:00;2.20;;;2.03;;
1350;SDS011;669;50.206;9.998;2023-10-31T01:02:29;5.67;;;2.30;;
1350;SDS011;669;50.206;9.998;2023-10-31T01:04:57;2.70;;;2.37;;
1350;SDS011;669;50.206;9.998;2023-10-31T01:07:25;1.77;;;1.67;;
1350;SDS011;669;50.206;9.998;2023-10-31T01:09:54;1.80;;;1.70;;
1350;SDS011;669;50.206;9.998;2023-10-31T01:12:22;1.60;;;1.50;;
1350;SDS011;669;50.206;9.998;2023-10-31T01:14:50;1.60;;;1.50;;
1350;SDS011;669;50.206;9.998;2023-10-31T01:17:18;3.30;;;1.20;;
1350;SDS011;669;50.206;9.998;2023-10-31T01:19:46;1.10;;;1.10;;
1350;SDS011;669;50.206;9.998;2023-10-31T01:22:14;1.40;;;1.40;;
1350;SDS011;669;50.206;9.998;2023-10-31T01:24:42;1.93;;;1.27;;
1350;SDS011;669;50.206;9.998;2023-10-31T01:27:11;1.87;;;0.93;;
1350;SDS011;669;50.206;9.998;2023-10-31T01:29:39;1.10;;;0.90;;
1350;SDS011;669;50.206;9.998;2023-10-31T01:32:07;0.97;;;0.97;;
1350;SDS011;669;50.206;9.998;2023-10-31T01:34:47;1.10;;;1.10;;
1350;SDS011;669;50.206;9.998;2023-10-31T01:37:15;1.67;;;0.83;;
1350;SDS011;669;50.206;9.998;2023-10-31T01:39:45;0.80;;;0.80;;
1350;SDS011;669;50.206;9.998;2023-10-31T01:42:15;1.47;;;0.90;;
1350;SDS011;669;50.206;9.998;2023-10-31T01:44:43;0.60;;;0.60;;
1350;SDS011;669;50.206;9.998;2023-10-31T01:47:11;0.90;;;0.90;;
1350;SDS011;669;50.206;9.998;2023-10-31T01:49:39;1.10;;;0.90;;
1350;SDS011;669;50.206;9.998;2023-10-31T01:52:08;1.03;;;0.90;;
1350;SDS011;669;50.206;9.998;2023-10-31T01:54:36;0.70;;;0.70;;
1350;SDS011;669;50.206;9.998;2023-10-31T01:57:04;0.50;;;0.50;;
1350;SDS011;669;50.206;9.998;2023-10-31T01:59:34;0.70;;;0.70;;
1350;SDS011;669;50.206;9.998;2023-10-31T02:02:02;0.60;;;0.60;;
1350;SDS011;669;50.206;9.998;2023-10-31T02:04:32;0.67;;;0.67;;
1350;SDS011;669;50.206;9.998;2023-10-31T02:07:00;0.80;;;0.80;;
1350;SDS011;669;50.206;9.998;2023-10-31T02:09:28;1.07;;;0.70;;
1350;SDS011;669;50.206;9.998;2023-10-31T02:11:57;0.73;;;0.73;;
1350;SDS011;669;50.206;9.998;2023-10-31T02:14:25;0.70;;;0.70;;
1350;SDS011;669;50.206;9.998;2023-10-31T02:16:54;4.10;;;0.90;;
1350;SDS011;669;50.206;9.998;2023-10-31T02:19:22;0.63;;;0.63;;
1350;SDS011;669;50.206;9.998;2023-10-31T02:21:51;0.60;;;0.60;;
1350;SDS011;669;50.206;9.998;2023-10-31T02:24:19;0.73;;;0.70;;
1350;SDS011;669;50.206;9.998;2023-10-31T02:26:47;1.33;;;0.80;;
1350;SDS011;669;50.206;9.998;2023-10-31T02:29:15;1.10;;;1.10;;
1350;SDS011;669;50.206;9.998;2023-10-31T02:31:43;0.80;;;0.80;;
1350;SDS011;669;50.206;9.998;2023-10-31T02:34:11;0.90;;;0.90;;
1350;SDS011;669;50.206;9.998;2023-10-31T02:36:39;0.90;;;0.87;;
1350;SDS011;669;50.206;9.998;2023-10-31T02:39:08;1.00;;;0.63;;
1350;SDS011;669;50.206;9.998;2023-10-31T02:41:36;1.10;;;1.03;;
1350;SDS011;669;50.206;9.998;2023-10-31T02:44:04;1.07;;;1.00;;
1350;SDS011;669;50.206;9.998;2023-10-31T02:46:32;1.47;;;0.93;;
1350;SDS011;669;50.206;9.998;2023-10-31T02:49:04;4.83;;;1.03;;
1350;SDS011;669;50.206;9.998;2023-10-31T02:51:32;0.90;;;0.90;;
1350;SDS011;669;50.206;9.998;2023-10-31T02:54:00;0.70;;;0.70;;
1350;SDS011;669;50.206;9.998;2023-10-31T02:56:29;0.67;;;0.67;;
1350;SDS011;669;50.206;9.998;2023-10-31T02:58:57;0.70;;;0.70;;
1350;SDS011;669;50.206;9.998;2023-10-31T03:01:27;0.53;;;0.53;;
1350;SDS011;669;50.206;9.998;2023-10-31T03:03:55;0.70;;;0.70;;
1350;SDS011;669;50.206;9.998;2023-10-31T03:06:24;1.00;;;1.00;;
1350;SDS011;669;50.206;9.998;2023-10-31T03:08:51;1.90;;;0.70;;
1350;SDS011;669;50.206;9.998;2023-10-31T03:11:20;0.77;;;0.77;;
1350;SDS011;669;50.206;9.998;2023-10-31T03:13:50;1.90;;;1.00;;
1350;SDS011;669;50.206;9.998;2023-10-31T03:16:19;1.70;;;1.00;;
1350;SDS011;669;50.206;9.998;2023-10-31T03:18:47;1.07;;;1.03;;
1350;SDS011;669;50.206;9.998;2023-10-31T03:21:15;1.60;;;1.00;;
1350;SDS011;669;50.206;9.998;2023-10-31T03:23:46;1.13;;;0.80;;
1350;SDS011;669;50.206;9.998;2023-10-31T03:26:15;1.47;;;0.70;;
1350;SDS011;669;50.206;9.998;2023-10-31T03:28:44;0.70;;;0.70;;
1350;SDS011;669;50.206;9.998;2023-10-31T03:31:14;0.90;;;0.90;;
1350;SDS011;669;50.206;9.998;2023-10-31T03:33:42;0.73;;;0.73;;
1350;SDS011;669;50.206;9.998;2023-10-31T03:36:10;1.10;;;1.10;;
1350;SDS011;669;50.206;9.998;2023-10-31T03:38:38;1.00;;;1.00;;
1350;SDS011;669;50.206;9.998;2023-10-31T03:41:07;1.63;;;0.70;;
1350;SDS011;669;50.206;9.998;2023-10-31T03:43:35;1.17;;;0.77;;
1350;SDS011;669;50.206;9.998;2023-10-31T03:46:03;1.00;;;0.90;;
1350;SDS011;669;50.206;9.998;2023-10-31T03:48:33;1.13;;;0.83;;
1350;SDS011;669;50.206;9.998;2023-10-31T03:51:01;1.13;;;0.87;;
1350;SDS011;669;50.206;9.998;2023-10-31T03:53:29;3.97;;;1.03;;
1350;SDS011;669;50.206;9.998;2023-10-31T03:55:58;1.10;;;1.10;;
1350;SDS011;669;50.206;9.998;2023-10-31T03:58:27;1.13;;;0.50;;
1350;SDS011;669;50.206;9.998;2023-10-31T04:00:55;1.30;;;1.30;;
1350;SDS011;669;50.206;9.998;2023-10-31T04:03:23;0.93;;;0.80;;
1350;SDS011;669;50.206;9.998;2023-10-31T04:05:52;1.13;;;0.90;;
1350;SDS011;669;50.206;9.998;2023-10-31T04:08:20;2.67;;;0.90;;
1350;SDS011;669;50.206;9.998;2023-10-31T04:10:48;0.60;;;0.60;;
1350;SDS011;669;50.206;9.998;2023-10-31T04:13:16;0.60;;;0.60;;
1350;SDS011;669;50.206;9.998;2023-10-31T04:15:44;0.70;;;0.70;;
1350;SDS011;669;50.206;9.998;2023-10-31T04:18:12;0.53;;;0.53;;
1350;SDS011;669;50.206;9.998;2023-10-31T04:20:41;4.93;;;0.80;;
1350;SDS011;669;50.206;9.998;2023-10-31T04:23:11;1.23;;;0.80;;
1350;SDS011;669;50.206;9.998;2023-10-31T04:25:39;3.83;;;0.90;;
1350;SDS011;669;50.206;9.998;2023-10-31T04:28:07;0.63;;;0.63;;
1350;SDS011;669;50.206;9.998;2023-10-31T04:30:35;0.60;;;0.60;;
1350;SDS011;669;50.206;9.998;2023-10-31T04:33:03;0.80;;;0.70;;
1350;SDS011;669;50.206;9.998;2023-10-31T04:35:31;0.50;;;0.50;;
1350;SDS011;669;50.206;9.998;2023-10-31T04:37:59;1.47;;;0.80;;
1350;SDS011;669;50.206;9.998;2023-10-31T04:40:28;0.70;;;0.70;;
1350;SDS011;669;50.206;9.998;2023-10-31T04:42:57;2.17;;;0.70;;
1350;SDS011;669;50.206;9.998;2023-10-31T04:45:25;0.77;;;0.77;;
1350;SDS011;669;50.206;9.998;2023-10-31T04:47:53;3.27;;;0.90;;
1350;SDS011;669;50.206;9.998;2023-10-31T04:50:21;2.67;;;0.83;;
1350;SDS011;669;50.206;9.998;2023-10-31T04:52:49;1.03;;;1.00;;
1350;SDS011;669;50.206;9.998;2023-10-31T04:55:17;1.63;;;0.97;;
1350;SDS011;669;50.206;9.998;2023-10-31T04:57:46;0.90;;;0.90;;
1350;SDS011;669;50.206;9.998;2023-10-31T05:00:14;0.97;;;0.97;;
1350;SDS011;669;50.206;9.998;2023-10-31T05:02:43;0.83;;;0.83;;
1350;SDS011;669;50.206;9.998;2023-10-31T05:05:11;0.93;;;0.93;;
1350;SDS011;669;50.206;9.998;2023-10-31T05:07:39;3.13;;;1.23;;
1350;SDS011;669;50.206;9.998;2023-10-31T05:10:07;0.93;;;0.93;;
1350;SDS011;669;50.206;9.998;2023-10-31T05:12:36;0.87;;;0.87;;
1350;SDS011;669;50.206;9.998;2023-10-31T05:15:06;0.90;;;0.90;;
1350;SDS011;669;50.206;9.998;2023-10-31T05:17:34;1.50;;;1.07;;
1350;SDS011;669;50.206;9.998;2023-10-31T05:20:03;0.67;;;0.67;;
1350;SDS011;669;50.206;9.998;2023-10-31T05:22:31;0.80;;;0.80;;
1350;SDS011;669;50.206;9.998;2023-10-31T05:24:59;2.07;;;1.07;;
1350;SDS011;669;50.206;9.998;2023-10-31T05:27:29;0.83;;;0.83;;
1350;SDS011;669;50.206;9.998;2023-10-31T05:30:00;1.43;;;0.80;;
1350;SDS011;669;50.206;9.998;2023-10-31T05:32:29;1.03;;;1.03;;
1350;SDS011;669;50.206;9.998;2023-10-31T05:34:57;0.90;;;0.90;;
1350;SDS011;669;50.206;9.998;2023-10-31T05:37:26;0.83;;;0.83;;
1350;SDS011;669;50.206;9.998;2023-10-31T05:39:54;1.20;;;1.10;;
1350;SDS011;669;50.206;9.998;2023-10-31T05:42:22;1.10;;;1.10;;
1350;SDS011;669;50.206;9.998;2023-10-31T05:44:51;0.93;;;0.93;;
1350;SDS011;669;50.206;9.998;2023-10-31T05:47:19;1.30;;;1.20;;
1350;SDS011;669;50.206;9.998;2023-10-31T05:49:48;2.07;;;1.20;;
1350;SDS011;669;50.206;9.998;2023-10-31T05:52:16;1.20;;;1.10;;
1350;SDS011;669;50.206;9.998;2023-10-31T05:54:44;1.20;;;1.20;;
1350;SDS011;669;50.206;9.998;2023-10-31T05:57:12;1.63;;;1.10;;
1350;SDS011;669;50.206;9.998;2023-10-31T05:59:40;2.10;;;2.00;;
1350;SDS011;669;50.206;9.998;2023-10-31T06:02:08;1.90;;;1.03;;
1350;SDS011;669;50.206;9.998;2023-10-31T06:04:36;0.77;;;0.77;;
1350;SDS011;669;50.206;9.998;2023-10-31T06:07:05;1.63;;;1.50;;
1350;SDS011;669;50.206;9.998;2023-10-31T06:09:33;4.63;;;0.87;;
1350;SDS011;669;50.206;9.998;2023-10-31T06:12:01;1.07;;;0.97;;
1350;SDS011;669;50.206;9.998;2023-10-31T06:14:29;1.57;;;1.47;;
1350;SDS011;669;50.206;9.998;2023-10-31T06:16:58;0.90;;;0.90;;
1350;SDS011;669;50.206;9.998;2023-10-31T06:19:27;1.47;;;1.13;;
1350;SDS011;669;50.206;9.998;2023-10-31T06:21:55;1.00;;;1.00;;
1350;SDS011;669;50.206;9.998;2023-10-31T06:24:24;2.23;;;1.20;;
1350;SDS011;669;50.206;9.998;2023-10-31T06:26:52;1.40;;;1.30;;
1350;SDS011;669;50.206;9.998;2023-10-31T06:29:20;1.00;;;1.00;;
1350;SDS011;669;50.206;9.998;2023-10-31T06:32:08;1.10;;;1.10;;
1350;SDS011;669;50.206;9.998;2023-10-31T06:34:36;1.20;;;1.20;;
1350;SDS011;669;50.206;9.998;2023-10-31T06:37:04;4.30;;;1.50;;
1350;SDS011;669;50.206;9.998;2023-10-31T06:39:33;3.90;;;1.33;;
1350;SDS011;669;50.206;9.998;2023-10-31T06:42:01;1.40;;;1.30;;
1350;SDS011;669;50.206;9.998;2023-10-31T06:44:29;1.63;;;1.53;;
1350;SDS011;669;50.206;9.998;2023-10-31T06:46:57;0.80;;;0.80;;
1350;SDS011;669;50.206;9.998;2023-10-31T06:49:25;2.30;;;1.40;;
1350;SDS011;669;50.206;9.998;2023-10-31T06:51:53;1.80;;;1.27;;
1350;SDS011;669;50.206;9.998;2023-10-31T06:54:21;1.13;;;0.90;;
1350;SDS011;669;50.206;9.998;2023-10-31T06:56:50;2.63;;;1.60;;
1350;SDS011;669;50.206;9.998;2023-10-31T06:59:18;1.10;;;1.10;;
1350;SDS011;669;50.206;9.998;2023-10-31T07:01:46;1.20;;;1.10;;
1350;SDS011;669;50.206;9.998;2023-10-31T07:04:14;1.33;;;1.20;;
1350;SDS011;669;50.206;9.998;2023-10-31T07:06:43;1.40;;;1.30;;
1350;SDS011;669;50.206;9.998;2023-10-31T07:09:11;1.50;;;1.27;;
1350;SDS011;669;50.206;9.998;2023-10-31T07:11:38;2.07;;;1.10;;
1350;SDS011;669;50.206;9.998;2023-10-31T07:14:08;2.47;;;1.30;;
1350;SDS011;669;50.206;9.998;2023-10-31T07:16:36;1.57;;;1.17;;
1350;SDS011;669;50.206;9.998;2023-10-31T07:19:04;1.33;;;1.23;;
1350;SDS011;669;50.206;9.998;2023-10-31T07:21:31;0.90;;;0.90;;
1350;SDS011;669;50.206;9.998;2023-10-31T07:23:59;1.17;;;1.07;;
1350;SDS011;669;50.206;9.998;2023-10-31T07:26:27;1.53;;;1.20;;
1350;SDS011;669;50.206;9.998;2023-10-31T07:28:55;1.20;;;1.20;;
1350;SDS011;669;50.206;9.998;2023-10-31T07:31:25;1.00;;;1.00;;
1350;SDS011;669;50.206;9.998;2023-10-31T07:33:52;1.20;;;1.20;;
1350;SDS011;669;50.206;9.998;2023-10-31T07:36:20;0.80;;;0.80;;
1350;SDS011;669;50.206;9.998;2023-10-31T07:38:48;1.70;;;0.90;;
1350;SDS011;669;50.206;9.998;2023-10-31T07:41:16;0.97;;;0.97;;
1350;SDS011;669;50.206;9.998;2023-10-31T07:43:44;1.10;;;1.10;;
1350;SDS011;669;50.206;9.998;2023-10-31T07:46:12;1.20;;;0.90;;
1350;SDS011;669;50.206;9.998;2023-10-31T07:48:42;1.07;;;1.03;;
1350;SDS011;669;50.206;9.998;2023-10-31T07:51:10;0.90;;;0.90;;
1350;SDS011;669;50.206;9.998;2023-10-31T07:53:38;0.90;;;0.90;;
1350;SDS011;669;50.206;9.998;2023-10-31T07:56:08;8.17;;;1.27;;
1350;SDS011;669;50.206;9.998;2023-10-31T07:58:42;0.53;;;0.53;;
1350;SDS011;669;50.206;9.998;2023-10-31T08:01:10;0.77;;;0.77;;
1350;SDS011;669;50.206;9.998;2023-10-31T08:03:38;2.20;;;1.83;;
1350;SDS011;669;50.206;9.998;2023-10-31T08:06:08;1.23;;;1.13;;
1350;SDS011;669;50.206;9.998;2023-10-31T08:08:38;1.13;;;0.73;;
1350;SDS011;669;50.206;9.998;2023-10-31T08:11:07;0.60;;;0.60;;
1350;SDS011;669;50.206;9.998;2023-10-31T08:13:36;1.03;;;0.70;;
1350;SDS011;669;50.206;9.998;2023-10-31T08:16:04;2.03;;;0.83;;
1350;SDS011;669;50.206;9.998;2023-10-31T08:18:34;1.10;;;1.10;;
1350;SDS011;669;50.206;9.998;2023-10-31T08:21:02;1.53;;;0.90;;
1350;SDS011;669;50.206;9.998;2023-10-31T08:23:32;0.63;;;0.63;;
1350;SDS011;669;50.206;9.998;2023-10-31T08:26:01;1.57;;;0.80;;
1350;SDS011;669;50.206;9.998;2023-10-31T08:28:29;0.60;;;0.60;;
1350;SDS011;669;50.206;9.998;2023-10-31T08:30:57;0.73;;;0.73;;
1350;SDS011;669;50.206;9.998;2023-10-31T08:33:25;4.83;;;1.03;;
1350;SDS011;669;50.206;9.998;2023-10-31T08:35:53;1.10;;;1.00;;
1350;SDS011;669;50.206;9.998;2023-10-31T08:38:21;1.30;;;1.17;;
1350;SDS011;669;50.206;9.998;2023-10-31T08:40:58;0.70;;;0.70;;
1350;SDS011;669;50.206;9.998;2023-10-31T08:43:26;1.03;;;1.03;;
1350;SDS011;669;50.206;9.998;2023-10-31T08:45:54;5.90;;;1.83;;
1350;SDS011;669;50.206;9.998;2023-10-31T08:48:22;0.87;;;0.87;;
1350;SDS011;669;50.206;9.998;2023-10-31T08:50:51;0.90;;;0.90;;
1350;SDS011;669;50.206;9.998;2023-10-31T08:53:19;1.23;;;1.13;;
1350;SDS011;669;50.206;9.998;2023-10-31T08:55:47;1.17;;;0.90;;
1350;SDS011;669;50.206;9.998;2023-10-31T08:58:16;1.00;;;1.00;;
1350;SDS011;669;50.206;9.998;2023-10-31T09:00:44;2.03;;;0.90;;
1350;SDS011;669;50.206;9.998;2023-10-31T09:03:12;0.80;;;0.80;;
1350;SDS011;669;50.206;9.998;2023-10-31T09:05:40;2.83;;;1.20;;
1350;SDS011;669;50.206;9.998;2023-10-31T09:08:09;4.07;;;1.00;;
1350;SDS011;669;50.206;9.998;2023-10-31T09:10:37;0.83;;;0.83;;
1350;SDS011;669;50.206;9.998;2023-10-31T09:13:05;0.80;;;0.80;;
1350;SDS011;669;50.206;9.998;2023-10-31T09:15:34;3.53;;;1.00;;
1350;SDS011;669;50.206;9.998;2023-10-31T09:18:05;0.77;;;0.77;;
1350;SDS011;669;50.206;9.998;2023-10-31T09:20:33;1.13;;;1.13;;
1350;SDS011;669;50.206;9.998;2023-10-31T09:23:02;0.70;;;0.70;;
1350;SDS011;669;50.206;9.998;2023-10-31T09:25:30;1.37;;;0.60;;
1350;SDS011;669;50.206;9.998;2023-10-31T09:27:58;0.70;;;0.70;;
1350;SDS011;669;50.206;9.998;2023-10-31T09:30:26;0.80;;;0.80;;
1350;SDS011;669;50.206;9.998;2023-10-31T09:32:55;6.40;;;1.03;;
1350;SDS011;669;50.206;9.998;2023-10-31T09:35:23;0.90;;;0.87;;
1350;SDS011;669;50.206;9.998;2023-10-31T09:37:52;1.07;;;0.80;;
1350;SDS011;669;50.206;9.998;2023-10-31T09:40:20;0.67;;;0.67;;
1350;SDS011;669;50.206;9.998;2023-10-31T09:42:49;0.63;;;0.63;;
1350;SDS011;669;50.206;9.998;2023-10-31T09:45:17;0.90;;;0.90;;
1350;SDS011;669;50.206;9.998;2023-10-31T09:47:45;0.93;;;0.70;;
1350;SDS011;669;50.206;9.998;2023-10-31T09:50:14;0.80;;;0.80;;
1350;SDS011;669;50.206;9.998;2023-10-31T09:52:42;0.70;;;0.70;;
1350;SDS011;669;50.206;9.998;2023-10-31T09:55:12;0.70;;;0.60;;
1350;SDS011;669;50.206;9.998;2023-10-31T09:57:41;2.20;;;0.77;;
1350;SDS011;669;50.206;9.998;2023-10-31T10:00:09;0.60;;;0.60;;
1350;SDS011;669;50.206;9.998;2023-10-31T10:02:38;1.00;;;0.87;;
1350;SDS011;669;50.206;9.998;2023-10-31T10:05:07;5.07;;;0.70;;
1350;SDS011;669;50.206;9.998;2023-10-31T10:07:38;0.83;;;0.80;;
1350;SDS011;669;50.206;9.998;2023-10-31T10:10:10;1.10;;;0.73;;
1350;SDS011;669;50.206;9.998;2023-10-31T10:12:40;0.90;;;0.90;;
1350;SDS011;669;50.206;9.998;2023-10-31T10:15:09;1.50;;;0.70;;
1350;SDS011;669;50.206;9.998;2023-10-31T10:17:39;0.93;;;0.70;;
1350;SDS011;669;50.206;9.998;2023-10-31T10:20:15;1.03;;;0.50;;
1350;SDS011;669;50.206;9.998;2023-10-31T10:22:45;0.80;;;0.80;;
1350;SDS011;669;50.206;9.998;2023-10-31T10:25:14;1.20;;;1.10;;
1350;SDS011;669;50.206;9.998;2023-10-31T10:27:43;1.83;;;1.67;;
1350;SDS011;669;50.206;9.998;2023-10-31T10:30:13;2.70;;;0.90;;
1350;SDS011;669;50.206;9.998;2023-10-31T10:32:42;0.93;;;0.80;;
1350;SDS011;669;50.206;9.998;2023-10-31T10:35:10;1.63;;;0.70;;
1350;SDS011;669;50.206;9.998;2023-10-31T10:37:38;2.30;;;0.90;;
1350;SDS011;669;50.206;9.998;2023-10-31T10:40:08;0.70;;;0.70;;
1350;SDS011;669;50.206;9.998;2023-10-31T10:42:40;0.90;;;0.77;;
1350;SDS011;669;50.206;9.998;2023-10-31T10:45:12;0.60;;;0.60;;
1350;SDS011;669;50.206;9.998;2023-10-31T10:47:45;0.50;;;0.50;;
1350;SDS011;669;50.206;9.998;2023-10-31T10:50:14;1.43;;;0.70;;
1350;SDS011;669;50.206;9.998;2023-10-31T10:52:48;1.80;;;0.77;;
1350;SDS011;669;50.206;9.998;2023-10-31T10:55:24;1.60;;;0.70;;
1350;SDS011;669;50.206;9.998;2023-10-31T10:57:56;0.50;;;0.50;;
1350;SDS011;669;50.206;9.998;2023-10-31T11:00:27;1.00;;;0.70;;
1350;SDS011;669;50.206;9.998;2023-10-31T11:02:56;0.80;;;0.80;;
1350;SDS011;669;50.206;9.998;2023-10-31T11:05:25;0.83;;;0.83;;
1350;SDS011;669;50.206;9.998;2023-10-31T11:07:53;1.07;;;0.80;;
1350;SDS011;669;50.206;9.998;2023-10-31T11:10:25;1.07;;;1.03;;
1350;SDS011;669;50.206;9.998;2023-10-31T11:12:54;1.43;;;1.20;;
1350;SDS011;669;50.206;9.998;2023-10-31T11:15:23;1.57;;;1.30;;
1350;SDS011;669;50.206;9.998;2023-10-31T11:17:52;0.90;;;0.90;;
1350;SDS011;669;50.206;9.998;2023-10-31T11:20:22;0.60;;;0.60;;
1350;SDS011;669;50.206;9.998;2023-10-31T11:22:54;0.50;;;0.50;;
1350;SDS011;669;50.206;9.998;2023-10-31T11:25:25;1.13;;;1.00;;
1350;SDS011;669;50.206;9.998;2023-10-31T11:28:10;3.77;;;1.10;;
1350;SDS011;669;50.206;9.998;2023-10-31T11:30:38;1.03;;;0.90;;
1350;SDS011;669;50.206;9.998;2023-10-31T11:33:10;1.20;;;1.10;;
1350;SDS011;669;50.206;9.998;2023-10-31T11:35:40;6.13;;;1.87;;
1350;SDS011;669;50.206;9.998;2023-10-31T11:38:11;1.00;;;1.00;;
1350;SDS011;669;50.206;9.998;2023-10-31T11:40:57;0.60;;;0.60;;
1350;SDS011;669;50.206;9.998;2023-10-31T11:43:34;5.80;;;1.30;;
1350;SDS011;669;50.206;9.998;2023-10-31T11:46:03;3.07;;;1.30;;
1350;SDS011;669;50.206;9.998;2023-10-31T11:48:44;0.73;;;0.73;;
1350;SDS011;669;50.206;9.998;2023-10-31T11:51:13;5.40;;;1.03;;
1350;SDS011;669;50.206;9.998;2023-10-31T11:53:41;0.97;;;0.93;;
1350;SDS011;669;50.206;9.998;2023-10-31T11:56:12;0.60;;;0.60;;
1350;SDS011;669;50.206;9.998;2023-10-31T11:58:40;0.60;;;0.60;;
1350;SDS011;669;50.206;9.998;2023-10-31T12:01:09;1.73;;;0.70;;
1350;SDS011;669;50.206;9.998;2023-10-31T12:03:38;0.90;;;0.53;;
1350;SDS011;669;50.206;9.998;2023-10-31T12:06:07;0.77;;;0.77;;
1350;SDS011;669;50.206;9.998;2023-10-31T12:08:37;0.50;;;0.50;;
1350;SDS011;669;50.206;9.998;2023-10-31T12:11:06;1.47;;;0.80;;
1350;SDS011;669;50.206;9.998;2023-10-31T12:13:36;0.70;;;0.70;;
1350;SDS011;669;50.206;9.998;2023-10-31T12:16:05;1.37;;;0.90;;
1350;SDS011;669;50.206;9.998;2023-10-31T12:18:35;1.57;;;0.70;;
1350;SDS011;669;50.206;9.998;2023-10-31T12:21:05;0.80;;;0.67;;
1350;SDS011;669;50.206;9.998;2023-10-31T12:23:34;0.47;;;0.47;;
1350;SDS011;669;50.206;9.998;2023-10-31T12:26:02;0.70;;;0.70;;
1350;SDS011;669;50.206;9.998;2023-10-31T12:28:31;2.10;;;1.33;;
1350;SDS011;669;50.206;9.998;2023-10-31T12:31:00;1.30;;;0.63;;
1350;SDS011;669;50.206;9.998;2023-10-31T12:33:30;0.83;;;0.70;;
1350;SDS011;669;50.206;9.998;2023-10-31T12:35:58;1.67;;;0.87;;
1350;SDS011;669;50.206;9.998;2023-10-31T12:38:27;0.97;;;0.60;;
1350;SDS011;669;50.206;9.998;2023-10-31T12:40:56;0.60;;;0.60;;
1350;SDS011;669;50.206;9.998;2023-10-31T12:43:25;2.90;;;1.07;;
1350;SDS011;669;50.206;9.998;2023-10-31T12:45:55;1.63;;;0.70;;
1350;SDS011;669;50.206;9.998;2023-10-31T12:48:25;1.10;;;1.00;;
1350;SDS011;669;50.206;9.998;2023-10-31T12:51:05;0.40;;;0.40;;
1350;SDS011;669;50.206;9.998;2023-10-31T12:53:34;1.73;;;0.60;;
1350;SDS011;669;50.206;9.998;2023-10-31T12:56:03;0.60;;;0.60;;
1350;SDS011;669;50.206;9.998;2023-10-31T12:58:31;1.80;;;0.60;;
1350;SDS011;669;50.206;9.998;2023-10-31T13:01:00;0.70;;;0.70;;
1350;SDS011;669;50.206;9.998;2023-10-31T13:03:29;1.03;;;0.60;;
1350;SDS011;669;50.206;9.998;2023-10-31T13:05:58;0.87;;;0.80;;
1350;SDS011;669;50.206;9.998;2023-10-31T13:08:26;1.80;;;0.77;;
1350;SDS011;669;50.206;9.998;2023-10-31T13:10:56;3.27;;;0.90;;
1350;SDS011;669;50.206;9.998;2023-10-31T13:13:24;1.13;;;1.00;;
1350;SDS011;669;50.206;9.998;2023-10-31T13:15:52;0.80;;;0.80;;
1350;SDS011;669;50.206;9.998;2023-10-31T13:18:20;2.10;;;0.87;;
1350;SDS011;669;50.206;9.998;2023-10-31T13:20:49;0.70;;;0.70;;
1350;SDS011;669;50.206;9.998;2023-10-31T13:23:17;0.90;;;0.77;;
1350;SDS011;669;50.206;9.998;2023-10-31T13:25:45;0.70;;;0.70;;
1350;SDS011;669;50.206;9.998;2023-10-31T13:28:13;0.60;;;0.50;;
1350;SDS011;669;50.206;9.998;2023-10-31T13:30:42;1.83;;;0.50;;
1350;SDS011;669;50.206;9.998;2023-10-31T13:33:12;0.73;;;0.67;;
1350;SDS011;669;50.206;9.998;2023-10-31T13:35:39;0.60;;;0.60;;
1350;SDS011;669;50.206;9.998;2023-10-31T13:38:09;0.93;;;0.90;;
1350;SDS011;669;50.206;9.998;2023-10-31T13:40:37;0.70;;;0.40;;
1350;SDS011;669;50.206;9.998;2023-10-31T13:43:06;0.50;;;0.50;;
1350;SDS011;669;50.206;9.998;2023-10-31T13:45:34;2.30;;;0.57;;
1350;SDS011;669;50.206;9.998;2023-10-31T13:48:02;0.60;;;0.50;;
1350;SDS011;669;50.206;9.998;2023-10-31T13:50:30;1.33;;;1.13;;
1350;SDS011;669;50.206;9.998;2023-10-31T13:52:58;0.50;;;0.50;;
1350;SDS011;669;50.206;9.998;2023-10-31T13:55:27;2.67;;;1.30;;
1350;SDS011;669;50.206;9.998;2023-10-31T13:57:55;1.53;;;0.57;;
1350;SDS011;669;50.206;9.998;2023-10-31T14:00:23;1.73;;;0.70;;
1350;SDS011;669;50.206;9.998;2023-10-31T14:02:51;4.30;;;0.70;;
1350;SDS011;669;50.206;9.998;2023-10-31T14:05:19;0.67;;;0.67;;
1350;SDS011;669;50.206;9.998;2023-10-31T14:07:47;0.80;;;0.80;;
1350;SDS011;669;50.206;9.998;2023-10-31T14:10:17;1.23;;;0.60;;
1350;SDS011;669;50.206;9.998;2023-10-31T14:12:47;1.67;;;1.10;;
1350;SDS011;669;50.206;9.998;2023-10-31T14:15:15;2.37;;;0.67;;
1350;SDS011;669;50.206;9.998;2023-10-31T14:17:43;0.97;;;0.80;;
1350;SDS011;669;50.206;9.998;2023-10-31T14:20:11;3.03;;;0.60;;
1350;SDS011;669;50.206;9.998;2023-10-31T14:22:40;1.00;;;0.60;;
1350;SDS011;669;50.206;9.998;2023-10-31T14:25:08;0.90;;;0.70;;
1350;SDS011;669;50.206;9.998;2023-10-31T14:27:36;0.50;;;0.50;;
1350;SDS011;669;50.206;9.998;2023-10-31T14:30:06;1.90;;;0.80;;
1350;SDS011;669;50.206;9.998;2023-10-31T14:32:35;0.83;;;0.50;;
1350;SDS011;669;50.206;9.998;2023-10-31T14:35:03;1.87;;;0.80;;
1350;SDS011;669;50.206;9.998;2023-10-31T14:37:32;0.60;;;0.60;;
1350;SDS011;669;50.206;9.998;2023-10-31T14:40:01;1.23;;;0.90;;
1350;SDS011;669;50.206;9.998;2023-10-31T14:42:30;2.83;;;0.80;;
1350;SDS011;669;50.206;9.998;2023-10-31T14:44:58;1.73;;;0.63;;
1350;SDS011;669;50.206;9.998;2023-10-31T14:47:28;1.00;;;0.70;;
1350;SDS011;669;50.206;9.998;2023-10-31T14:49:56;9.03;;;1.27;;
1350;SDS011;669;50.206;9.998;2023-10-31T14:52:24;1.90;;;0.73;;
1350;SDS011;669;50.206;9.998;2023-10-31T14:54:52;0.70;;;0.53;;
1350;SDS011;669;50.206;9.998;2023-10-31T14:57:20;2.03;;;0.90;;
1350;SDS011;669;50.206;9.998;2023-10-31T14:59:48;2.40;;;0.90;;
1350;SDS011;669;50.206;9.998;2023-10-31T15:02:16;2.97;;;0.70;;
1350;SDS011;669;50.206;9.998;2023-10-31T15:04:45;3.03;;;0.67;;
1350;SDS011;669;50.206;9.998;2023-10-31T15:07:13;0.77;;;0.73;;
1350;SDS011;669;50.206;9.998;2023-10-31T15:09:41;1.77;;;0.90;;
1350;SDS011;669;50.206;9.998;2023-10-31T15:12:09;6.53;;;1.13;;
1350;SDS011;669;50.206;9.998;2023-10-31T15:14:39;1.40;;;0.80;;
1350;SDS011;669;50.206;9.998;2023-10-31T15:17:07;0.87;;;0.87;;
1350;SDS011;669;50.206;9.998;2023-10-31T15:19:35;2.30;;;1.10;;
1350;SDS011;669;50.206;9.998;2023-10-31T15:22:04;1.10;;;1.03;;
1350;SDS011;669;50.206;9.998;2023-10-31T15:24:32;2.43;;;1.10;;
1350;SDS011;669;50.206;9.998;2023-10-31T15:27:00;0.60;;;0.60;;
1350;SDS011;669;50.206;9.998;2023-10-31T15:29:28;2.07;;;1.87;;
1350;SDS011;669;50.206;9.998;2023-10-31T15:31:56;2.80;;;2.10;;
1350;SDS011;669;50.206;9.998;2023-10-31T15:34:24;4.10;;;2.93;;
1350;SDS011;669;50.206;9.998;2023-10-31T15:36:51;3.40;;;2.80;;
1350;SDS011;669;50.206;9.998;2023-10-31T15:39:21;1.93;;;1.67;;